createdAt,value
2019-05-22T00:05:04.710Z,15.3
2019-05-22T00:20:20.930Z,15.1
2019-05-22T00:35:24.278Z,15
2019-05-22T00:50:53.103Z,14.9
2019-05-22T01:06:09.145Z,14.8
2019-05-22T01:21:25.215Z,14.8
2019-05-22T01:36:41.215Z,14.8
2019-05-22T01:51:51.135Z,14.7
2019-05-22T02:07:13.182Z,14.6
2019-05-22T02:22:29.095Z,14.4
2019-05-22T02:37:45.368Z,14.4
2019-05-22T02:52:47.633Z,14.4
2019-05-22T03:08:16.613Z,14.3
2019-05-22T03:23:32.414Z,14.2
2019-05-22T03:38:48.184Z,14.1
2019-05-22T03:54:03.938Z,14.1
2019-05-22T04:09:13.603Z,13.9
2019-05-22T04:24:35.338Z,13.9
2019-05-22T04:39:50.843Z,13.6
2019-05-22T04:55:06.358Z,13.6
2019-05-22T05:10:08.884Z,13.4
2019-05-22T05:25:37.342Z,13.3
2019-05-22T05:40:52.937Z,13.3
2019-05-22T05:56:08.175Z,13.2
2019-05-22T06:11:23.516Z,13
2019-05-22T06:26:33.205Z,12.9
2019-05-22T06:41:54.124Z,12.9
2019-05-22T06:57:10.558Z,12.9
2019-05-22T07:12:24.661Z,12.9
2019-05-22T07:27:27.771Z,13
2019-05-22T07:42:55.646Z,13
2019-05-22T07:58:10.683Z,12.9
2019-05-22T08:13:25.868Z,12.9
2019-05-22T08:28:41.182Z,13
2019-05-22T08:44:11.875Z,12.9
2019-05-22T08:59:20.742Z,12.8
2019-05-22T09:14:26.890Z,12.8
2019-05-22T09:29:42.131Z,12.7
2019-05-22T09:44:46.120Z,12.4
2019-05-22T10:00:12.277Z,12.3
2019-05-22T10:15:27.389Z,12.4
2019-05-22T10:30:42.377Z,12.3
2019-05-22T10:45:57.418Z,12.3
2019-05-22T11:01:09.290Z,12.1
2019-05-22T11:16:27.459Z,12.2
2019-05-22T11:31:42.414Z,12.3
2019-05-22T11:46:57.477Z,12.4
2019-05-22T12:02:03.338Z,12.5
2019-05-22T12:17:37.814Z,12.5
2019-05-22T12:32:42.812Z,12.4
2019-05-22T12:47:59.437Z,12.4
2019-05-22T13:03:13.001Z,12.5
2019-05-22T13:18:27.362Z,12.4
2019-05-22T13:33:43.067Z,12.4
2019-05-22T13:48:58.105Z,12.3
2019-05-22T14:04:13.152Z,12.2
2019-05-22T14:19:21.175Z,12.2
2019-05-22T14:34:43.314Z,12.2
2019-05-22T14:49:58.000Z,12.1
2019-05-22T15:05:13.415Z,12.2
2019-05-22T15:20:15.012Z,12.2
2019-05-22T15:35:42.896Z,12.1
2019-05-22T15:50:57.818Z,11.9
2019-05-22T16:06:12.654Z,11.9
2019-05-22T16:21:27.501Z,11.8
2019-05-22T16:36:37.419Z,11.8
2019-05-22T16:51:57.168Z,11.7
2019-05-22T17:07:11.996Z,11.7
2019-05-22T17:22:26.767Z,11.7
2019-05-22T17:37:30.252Z,11.7
2019-05-22T17:52:56.410Z,11.6
2019-05-22T18:08:16.091Z,11.6
2019-05-22T18:23:25.833Z,11.6
2019-05-22T18:38:40.821Z,11.6
2019-05-22T18:53:51.911Z,11.6
2019-05-22T19:09:10.063Z,11.7
2019-05-22T19:24:24.895Z,11.7
2019-05-22T19:39:39.650Z,11.8
2019-05-22T19:54:45.622Z,11.8
2019-05-22T20:10:09.400Z,11.9
2019-05-22T20:25:24.186Z,11.9
2019-05-22T20:40:39.047Z,11.9
2019-05-22T20:55:54.204Z,11.8
2019-05-22T21:11:07.920Z,11.8
2019-05-22T21:26:23.449Z,11.8
2019-05-22T21:41:38.799Z,11.8
2019-05-22T21:56:53.050Z,11.8
2019-05-22T22:12:01.609Z,11.8
2019-05-22T22:27:22.648Z,11.8
2019-05-22T22:42:37.585Z,11.8
2019-05-22T22:57:52.359Z,11.8
2019-05-22T23:12:54.789Z,11.9
2019-05-22T23:28:33.994Z,11.9
2019-05-22T23:43:36.922Z,11.9
2019-05-22T23:58:53.064Z,11.8
